createdAt,value
2022-10-05T00:01:55.274Z,11.63
2022-10-05T00:04:23.749Z,10.18
2022-10-05T00:07:13.380Z,10.88
2022-10-05T00:09:39.801Z,12.60
2022-10-05T00:12:17.947Z,11.70
2022-10-05T00:14:46.724Z,12.50
2022-10-05T00:17:20.800Z,14.25
2022-10-05T00:19:52.044Z,13.90
2022-10-05T00:22:21.562Z,12.38
2022-10-05T00:24:50.270Z,14.00
2022-10-05T00:27:25.891Z,14.10
2022-10-05T00:29:57.973Z,13.15
2022-10-05T00:32:24.355Z,11.85
2022-10-05T00:34:50.751Z,13.98
2022-10-05T00:37:17.126Z,12.00
2022-10-05T00:39:44.039Z,12.95
2022-10-05T00:42:50.262Z,10.57
2022-10-05T00:45:24.235Z,13.15
2022-10-05T00:48:17.991Z,12.55
2022-10-05T00:51:03.103Z,11.73
2022-10-05T00:53:48.781Z,11.88
2022-10-05T00:56:47.455Z,12.57
2022-10-05T00:59:36.850Z,11.38
2022-10-05T01:02:44.190Z,11.70
2022-10-05T01:05:33.156Z,9.83
2022-10-05T01:08:22.803Z,10.43
2022-10-05T01:11:10.957Z,10.50
2022-10-05T01:14:12.762Z,11.70
2022-10-05T01:16:52.783Z,9.20
2022-10-05T01:19:44.126Z,8.97
2022-10-05T01:22:25.636Z,13.57
2022-10-05T01:25:18.718Z,10.52
2022-10-05T01:27:57.601Z,11.25
2022-10-05T01:30:24.208Z,11.10
2022-10-05T01:33:24.480Z,11.20
2022-10-05T01:36:25.582Z,9.95
2022-10-05T01:38:57.728Z,10.48
2022-10-05T01:41:30.153Z,11.68
2022-10-05T01:44:02.932Z,9.45
2022-10-05T01:46:38.319Z,11.47
2022-10-05T01:49:32.068Z,11.88
2022-10-05T01:52:24.132Z,10.95
2022-10-05T01:55:14.873Z,11.63
2022-10-05T01:58:05.871Z,10.02
2022-10-05T02:00:40.396Z,11.97
2022-10-05T02:03:19.052Z,11.38
2022-10-05T02:05:54.313Z,11.88
2022-10-05T02:08:53.532Z,10.38
2022-10-05T02:11:20.209Z,10.85
2022-10-05T02:14:09.536Z,13.97
2022-10-05T02:16:42.011Z,10.57
2022-10-05T02:19:31.652Z,12.35
2022-10-05T02:22:11.862Z,12.55
2022-10-05T02:24:47.933Z,12.70
2022-10-05T02:27:21.709Z,14.57
2022-10-05T02:29:50.760Z,17.08
2022-10-05T02:32:22.688Z,13.18
2022-10-05T02:34:49.842Z,11.93
2022-10-05T02:37:40.444Z,13.88
2022-10-05T02:40:12.579Z,15.27
2022-10-05T02:43:08.202Z,18.17
2022-10-05T02:45:58.939Z,13.85
2022-10-05T02:48:38.008Z,15.20
2022-10-05T02:51:22.533Z,14.38
2022-10-05T02:54:10.123Z,15.73
2022-10-05T02:56:48.749Z,15.98
2022-10-05T02:59:31.867Z,12.10
2022-10-05T03:02:24.633Z,11.95
2022-10-05T03:05:25.105Z,11.98
2022-10-05T03:08:17.641Z,11.77
2022-10-05T03:11:29.352Z,11.20
2022-10-05T03:14:13.601Z,13.02
2022-10-05T03:17:04.043Z,12.80
2022-10-05T03:20:01.999Z,11.43
2022-10-05T03:22:54.440Z,10.20
2022-10-05T03:25:38.433Z,9.98
2022-10-05T03:28:30.865Z,10.35
2022-10-05T03:31:10.402Z,10.82
2022-10-05T03:33:53.172Z,10.57
2022-10-05T03:36:44.570Z,12.17
2022-10-05T03:39:26.765Z,11.77
2022-10-05T03:42:21.051Z,10.57
2022-10-05T03:44:53.528Z,13.43
2022-10-05T03:47:44.906Z,9.43
2022-10-05T03:50:31.272Z,12.73
2022-10-05T03:53:04.361Z,10.45
2022-10-05T03:55:37.163Z,11.43
2022-10-05T03:58:15.874Z,12.80
2022-10-05T04:00:45.495Z,12.13
2022-10-05T04:03:20.346Z,13.03
2022-10-05T04:05:51.828Z,12.27
2022-10-05T04:08:37.492Z,10.75
2022-10-05T04:11:10.123Z,11.38
2022-10-05T04:13:51.891Z,11.55
2022-10-05T04:16:24.514Z,11.87
2022-10-05T04:19:21.678Z,14.05
2022-10-05T04:21:53.266Z,11.38
2022-10-05T04:24:41.875Z,11.73
2022-10-05T04:27:39.624Z,11.35
2022-10-05T04:30:12.560Z,15.53
2022-10-05T04:32:42.901Z,12.32
2022-10-05T04:35:40.550Z,12.02
2022-10-05T04:38:49.083Z,12.80
2022-10-05T04:41:42.690Z,11.48
2022-10-05T04:44:41.287Z,13.83
2022-10-05T04:47:20.787Z,14.20
2022-10-05T04:50:07.968Z,15.05
2022-10-05T04:52:56.876Z,13.43
2022-10-05T04:55:45.128Z,15.50
2022-10-05T04:58:17.440Z,12.67
2022-10-05T05:01:12.262Z,14.57
2022-10-05T05:03:44.465Z,14.48
2022-10-05T05:06:47.899Z,14.50
2022-10-05T05:09:23.265Z,12.40
2022-10-05T05:12:03.777Z,16.00
2022-10-05T05:14:57.420Z,13.75
2022-10-05T05:18:01.227Z,16.48
2022-10-05T05:20:45.843Z,15.30
2022-10-05T05:23:23.931Z,14.48
2022-10-05T05:26:14.597Z,16.50
2022-10-05T05:28:55.817Z,16.20
2022-10-05T05:31:25.157Z,14.68
2022-10-05T05:34:13.408Z,17.20
2022-10-05T05:37:01.402Z,15.07
2022-10-05T05:39:32.368Z,16.03
2022-10-05T05:42:31.617Z,17.23
2022-10-05T05:45:05.460Z,15.85
2022-10-05T05:47:40.961Z,17.38
2022-10-05T05:50:27.905Z,16.83
2022-10-05T05:53:28.166Z,17.93
2022-10-05T05:56:01.158Z,15.60
2022-10-05T05:58:37.061Z,17.92
2022-10-05T06:01:25.144Z,18.85
2022-10-05T06:04:01.745Z,17.92
2022-10-05T06:06:32.511Z,19.37
2022-10-05T06:09:32.860Z,22.17
2022-10-05T06:12:06.279Z,16.75
2022-10-05T06:14:40.212Z,17.75
2022-10-05T06:17:16.242Z,19.08
2022-10-05T06:19:43.971Z,21.30
2022-10-05T06:22:28.019Z,18.85
2022-10-05T06:25:08.278Z,18.63
2022-10-05T06:27:55.850Z,18.13
2022-10-05T06:30:22.513Z,17.45
2022-10-05T06:33:13.739Z,19.30
2022-10-05T06:36:29.685Z,16.42
2022-10-05T06:39:11.277Z,19.02
2022-10-05T06:42:19.484Z,17.90
2022-10-05T06:44:57.879Z,17.27
2022-10-05T06:47:41.472Z,18.47
2022-10-05T06:50:37.823Z,18.58
2022-10-05T06:53:22.120Z,17.42
2022-10-05T06:55:48.420Z,19.42
2022-10-05T06:58:44.214Z,18.50
2022-10-05T07:01:23.740Z,17.07
2022-10-05T07:04:09.913Z,17.92
2022-10-05T07:06:59.886Z,15.15
2022-10-05T07:10:00.402Z,15.80
2022-10-05T07:12:49.777Z,16.15
2022-10-05T07:15:50.402Z,15.20
2022-10-05T07:18:36.008Z,16.80
2022-10-05T07:21:39.460Z,17.63
2022-10-05T07:24:41.748Z,15.85
2022-10-05T07:27:23.760Z,16.55
2022-10-05T07:30:04.633Z,16.20
2022-10-05T07:32:56.523Z,15.35
2022-10-05T07:35:52.593Z,15.63
2022-10-05T07:38:32.940Z,15.35
2022-10-05T07:41:06.257Z,15.57
2022-10-05T07:44:00.864Z,16.83
2022-10-05T07:46:51.006Z,15.18
2022-10-05T07:49:33.373Z,14.63
2022-10-05T07:52:02.949Z,16.58
2022-10-05T07:54:35.302Z,15.05
2022-10-05T07:57:06.087Z,15.67
2022-10-05T08:00:05.233Z,14.70
2022-10-05T08:03:00.980Z,14.40
2022-10-05T08:05:40.207Z,13.65
2022-10-05T08:08:24.940Z,14.40
2022-10-05T08:11:04.966Z,14.37
2022-10-05T08:13:50.177Z,14.93
2022-10-05T08:16:17.594Z,13.93
2022-10-05T08:19:17.140Z,15.00
2022-10-05T08:21:49.050Z,12.98
2022-10-05T08:24:37.140Z,16.23
2022-10-05T08:27:14.591Z,14.13
2022-10-05T08:29:50.036Z,15.38
2022-10-05T08:32:25.854Z,14.27
2022-10-05T08:35:04.095Z,13.10
2022-10-05T08:37:37.138Z,14.93
2022-10-05T08:40:18.799Z,13.43
2022-10-05T08:43:02.956Z,12.95
2022-10-05T08:45:57.803Z,16.02
2022-10-05T08:48:53.792Z,13.35
2022-10-05T08:51:38.945Z,15.00
2022-10-05T08:54:22.107Z,11.00
2022-10-05T08:56:55.624Z,11.25
2022-10-05T08:59:55.600Z,11.73
2022-10-05T09:02:44.431Z,11.40
2022-10-05T09:05:47.941Z,11.53
2022-10-05T09:08:51.887Z,12.40
2022-10-05T09:11:44.805Z,11.38
2022-10-05T09:14:18.993Z,11.50
2022-10-05T09:17:04.163Z,11.88
2022-10-05T09:19:52.809Z,11.10
2022-10-05T09:23:03.997Z,11.02
2022-10-05T09:25:56.232Z,11.32
2022-10-05T09:28:49.539Z,11.90
2022-10-05T09:31:37.263Z,10.38
2022-10-05T09:34:36.920Z,10.03
2022-10-05T09:37:34.227Z,10.02
2022-10-05T09:40:36.578Z,9.52
2022-10-05T09:43:25.290Z,9.18
2022-10-05T09:46:09.877Z,9.73
2022-10-05T09:49:01.210Z,9.07
2022-10-05T09:51:46.173Z,9.90
2022-10-05T09:54:29.222Z,9.73
2022-10-05T09:57:18.451Z,8.55
2022-10-05T10:00:28.114Z,8.43
2022-10-05T10:03:13.284Z,10.43
2022-10-05T10:05:47.444Z,8.23
2022-10-05T10:08:47.867Z,9.32
2022-10-05T10:11:39.861Z,9.07
2022-10-05T10:14:20.049Z,9.38
2022-10-05T10:17:15.791Z,9.10
2022-10-05T10:20:04.060Z,7.70
2022-10-05T10:22:51.854Z,7.28
2022-10-05T10:25:37.948Z,8.35
2022-10-05T10:28:19.970Z,9.38
2022-10-05T10:31:10.943Z,9.13
2022-10-05T10:34:02.246Z,11.30
2022-10-05T10:36:51.288Z,10.50
2022-10-05T10:39:55.702Z,9.10
2022-10-05T10:43:04.628Z,8.15
2022-10-05T10:45:46.503Z,9.10
2022-10-05T10:48:18.854Z,9.30
2022-10-05T10:51:10.681Z,9.18
2022-10-05T10:54:03.627Z,10.40
2022-10-05T10:57:06.057Z,9.48
2022-10-05T10:59:42.238Z,9.27
2022-10-05T11:02:27.810Z,12.70
2022-10-05T11:05:08.195Z,8.85
2022-10-05T11:07:55.878Z,9.15
2022-10-05T11:10:26.005Z,9.60
2022-10-05T11:13:16.888Z,10.30
2022-10-05T11:18:57.781Z,8.25
2022-10-05T11:21:31.642Z,8.95
2022-10-05T11:24:38.772Z,9.23
2022-10-05T11:27:26.790Z,7.57
2022-10-05T11:29:59.410Z,7.93
2022-10-05T11:32:53.660Z,8.30
2022-10-05T11:35:53.331Z,7.45
2022-10-05T11:38:43.151Z,7.28
2022-10-05T11:41:41.199Z,9.13
2022-10-05T11:44:19.144Z,7.32
2022-10-05T11:47:08.628Z,7.40
2022-10-05T11:49:55.606Z,6.78
2022-10-05T11:52:43.464Z,7.70
2022-10-05T11:55:29.908Z,8.30
2022-10-05T11:58:01.557Z,6.65
2022-10-05T12:00:53.772Z,7.13
2022-10-05T12:03:40.539Z,6.07
2022-10-05T12:06:15.408Z,6.30
2022-10-05T12:09:16.237Z,7.03
2022-10-05T12:12:01.169Z,7.30
2022-10-05T12:14:44.015Z,7.57
2022-10-05T12:17:42.381Z,7.97
2022-10-05T12:20:31.492Z,6.80
2022-10-05T12:23:12.875Z,8.20
2022-10-05T12:25:43.540Z,6.75
2022-10-05T12:28:15.438Z,7.88
2022-10-05T12:31:18.854Z,7.38
2022-10-05T12:34:03.235Z,7.28
2022-10-05T12:37:02.537Z,6.27
2022-10-05T12:39:35.790Z,7.53
2022-10-05T12:42:20.084Z,8.93
2022-10-05T12:45:03.782Z,8.48
2022-10-05T12:47:54.520Z,9.57
2022-10-05T12:50:30.821Z,9.13
2022-10-05T12:53:18.882Z,7.88
2022-10-05T12:56:00.812Z,9.93
2022-10-05T12:58:46.006Z,8.07
2022-10-05T13:01:24.548Z,6.95
2022-10-05T13:04:01.740Z,8.27
2022-10-05T13:07:13.222Z,8.55
2022-10-05T13:09:41.848Z,9.98
2022-10-05T13:12:23.008Z,7.80
2022-10-05T13:15:15.735Z,7.55
2022-10-05T13:17:51.040Z,8.00
2022-10-05T13:20:42.325Z,8.80
2022-10-05T13:23:24.950Z,7.70
2022-10-05T13:26:07.761Z,6.68
2022-10-05T13:28:44.672Z,8.00
2022-10-05T13:31:26.443Z,7.97
2022-10-05T13:34:20.795Z,9.73
2022-10-05T13:37:14.517Z,8.35
2022-10-05T13:40:05.390Z,7.80
2022-10-05T13:42:43.500Z,9.93
2022-10-05T13:45:24.959Z,8.10
2022-10-05T13:48:08.725Z,7.68
2022-10-05T13:50:44.831Z,7.95
2022-10-05T13:53:24.960Z,11.75
2022-10-05T13:56:06.210Z,6.95
2022-10-05T13:58:48.731Z,7.00
2022-10-05T14:01:28.248Z,7.32
2022-10-05T14:04:19.040Z,6.28
2022-10-05T14:06:46.502Z,5.03
2022-10-05T14:09:25.958Z,7.38
2022-10-05T14:12:04.676Z,6.63
2022-10-05T14:14:41.023Z,6.82
2022-10-05T14:17:15.080Z,6.13
2022-10-05T14:19:43.287Z,7.82
2022-10-05T14:22:22.555Z,5.93
2022-10-05T14:24:56.642Z,6.97
2022-10-05T14:27:28.384Z,5.93
2022-10-05T14:30:12.059Z,7.03
2022-10-05T14:33:04.278Z,6.18
2022-10-05T14:35:52.068Z,6.78
2022-10-05T14:38:26.314Z,7.03
2022-10-05T14:41:13.140Z,8.70
2022-10-05T14:43:49.960Z,6.10
2022-10-05T14:46:16.628Z,7.85
2022-10-05T14:48:44.713Z,8.13
2022-10-05T14:51:23.995Z,6.40
2022-10-05T14:53:59.992Z,6.97
2022-10-05T14:56:38.621Z,7.38
2022-10-05T14:59:23.549Z,6.22
2022-10-05T15:02:09.337Z,6.32
2022-10-05T15:04:42.943Z,7.73
2022-10-05T15:07:22.787Z,6.05
2022-10-05T15:10:18.971Z,6.15
2022-10-05T15:12:48.414Z,6.80
2022-10-05T15:15:27.029Z,6.25
2022-10-05T15:18:31.664Z,5.33
2022-10-05T15:21:13.423Z,8.48
2022-10-05T15:23:57.425Z,6.68
2022-10-05T15:26:50.468Z,6.88
2022-10-05T15:29:49.854Z,6.65
2022-10-05T15:32:55.382Z,7.00
2022-10-05T15:35:37.334Z,6.68
2022-10-05T15:38:25.835Z,9.70
2022-10-05T15:41:16.498Z,5.80
2022-10-05T15:44:13.900Z,6.40
2022-10-05T15:46:56.336Z,7.20
2022-10-05T15:49:27.595Z,6.45
2022-10-05T15:52:03.104Z,6.35
2022-10-05T15:54:54.770Z,7.25
2022-10-05T15:57:29.946Z,8.02
2022-10-05T16:00:02.260Z,6.70
2022-10-05T16:02:44.130Z,6.32
2022-10-05T16:05:55.475Z,5.85
2022-10-05T16:08:54.056Z,6.43
2022-10-05T16:11:44.444Z,7.10
2022-10-05T16:14:29.765Z,6.33
2022-10-05T16:17:26.823Z,6.95
2022-10-05T16:20:22.494Z,7.47
2022-10-05T16:22:59.640Z,6.97
2022-10-05T16:25:42.155Z,9.35
2022-10-05T16:28:20.617Z,7.63
2022-10-05T16:30:55.157Z,7.70
2022-10-05T16:33:32.326Z,7.95
2022-10-05T16:36:25.342Z,7.63
2022-10-05T16:39:22.309Z,7.88
2022-10-05T16:42:02.015Z,7.70
2022-10-05T16:44:39.104Z,8.57
2022-10-05T16:47:28.284Z,8.73
2022-10-05T16:50:08.499Z,7.47
2022-10-05T16:52:39.984Z,6.40
2022-10-05T16:55:19.949Z,6.73
2022-10-05T16:57:55.626Z,6.15
2022-10-05T17:00:25.465Z,6.68
2022-10-05T17:03:10.253Z,8.27
2022-10-05T17:05:41.600Z,7.93
2022-10-05T17:08:26.418Z,7.17
2022-10-05T17:11:20.933Z,7.40
2022-10-05T17:13:56.383Z,7.10
2022-10-05T17:16:40.872Z,5.63
2022-10-05T17:19:42.656Z,6.97
2022-10-05T17:22:22.673Z,6.90
2022-10-05T17:25:06.472Z,5.85
2022-10-05T17:27:35.161Z,5.88
2022-10-05T17:30:29.281Z,6.57
2022-10-05T17:33:20.542Z,6.90
2022-10-05T17:35:55.037Z,7.03
2022-10-05T17:38:30.598Z,6.05
2022-10-05T17:41:00.003Z,6.40
2022-10-05T17:43:33.836Z,7.43
2022-10-05T17:46:02.767Z,6.40
2022-10-05T17:48:42.314Z,5.73
2022-10-05T17:51:34.446Z,6.63
2022-10-05T17:55:08.715Z,7.60
2022-10-05T17:57:36.834Z,8.10
2022-10-05T18:00:43.504Z,6.65
2022-10-05T18:03:33.931Z,7.83
2022-10-05T18:06:31.844Z,5.43
2022-10-05T18:09:22.810Z,5.97
2022-10-05T18:12:19.207Z,6.80
2022-10-05T18:15:02.468Z,9.07
2022-10-05T18:17:51.285Z,7.10
2022-10-05T18:20:23.851Z,6.18
2022-10-05T18:22:53.266Z,4.78
2022-10-05T18:25:28.323Z,5.88
2022-10-05T18:28:00.852Z,5.68
2022-10-05T18:30:33.701Z,7.43
2022-10-05T18:33:08.840Z,6.20
2022-10-05T18:35:53.854Z,7.03
2022-10-05T18:38:36.751Z,5.97
2022-10-05T18:41:16.368Z,6.38
2022-10-05T18:43:45.935Z,4.47
2022-10-05T18:46:35.240Z,6.57
2022-10-05T18:49:29.496Z,6.40
2022-10-05T18:52:01.470Z,7.40
2022-10-05T18:54:54.851Z,5.60
2022-10-05T18:57:36.814Z,6.10
2022-10-05T19:00:13.480Z,8.57
2022-10-05T19:02:57.291Z,7.43
2022-10-05T19:05:48.657Z,7.80
2022-10-05T19:08:34.210Z,6.30
2022-10-05T19:11:06.433Z,6.73
2022-10-05T19:13:38.687Z,6.88
2022-10-05T19:16:27.901Z,6.97
2022-10-05T19:19:29.525Z,6.88
2022-10-05T19:22:07.484Z,6.93
2022-10-05T19:24:51.875Z,6.33
2022-10-05T19:27:50.743Z,7.13
2022-10-05T19:30:44.077Z,6.25
2022-10-05T19:33:26.747Z,5.65
2022-10-05T19:36:11.154Z,6.85
2022-10-05T19:38:49.602Z,6.13
2022-10-05T19:41:31.057Z,6.55
2022-10-05T19:44:35.327Z,7.10
2022-10-05T19:47:23.842Z,6.53
2022-10-05T19:49:54.250Z,6.03
2022-10-05T19:52:36.495Z,6.00
2022-10-05T19:55:13.142Z,6.57
2022-10-05T19:58:02.325Z,8.43
2022-10-05T20:00:31.769Z,6.97
2022-10-05T20:03:11.866Z,6.20
2022-10-05T20:05:39.113Z,9.40
2022-10-05T20:08:06.322Z,8.25
2022-10-05T20:10:33.003Z,8.85
2022-10-05T20:13:01.809Z,7.05
2022-10-05T20:15:54.354Z,4.95
2022-10-05T20:19:01.022Z,4.70
2022-10-05T20:21:37.879Z,3.50
2022-10-05T20:24:16.104Z,4.93
2022-10-05T20:27:04.737Z,4.38
2022-10-05T20:29:58.021Z,2.90
2022-10-05T20:32:27.482Z,3.70
2022-10-05T20:34:56.993Z,5.10
2022-10-05T20:37:23.716Z,3.22
2022-10-05T20:39:53.195Z,3.25
2022-10-05T20:42:20.727Z,3.50
2022-10-05T20:44:47.108Z,4.13
2022-10-05T20:47:13.786Z,3.20
2022-10-05T20:49:41.132Z,2.83
2022-10-05T20:52:14.930Z,2.60
2022-10-05T20:54:42.136Z,1.92
2022-10-05T20:57:09.649Z,2.53
2022-10-05T20:59:37.235Z,2.58
2022-10-05T21:02:04.928Z,2.20
2022-10-05T21:04:40.232Z,2.22
2022-10-05T21:07:08.175Z,2.08
2022-10-05T21:09:34.616Z,4.23
2022-10-05T21:12:00.958Z,1.67
2022-10-05T21:14:28.152Z,2.35
2022-10-05T21:16:54.494Z,2.88
2022-10-05T21:19:20.835Z,2.90
2022-10-05T21:21:47.576Z,1.83
2022-10-05T21:24:15.115Z,1.98
2022-10-05T21:26:42.579Z,2.53
2022-10-05T21:29:12.553Z,1.42
2022-10-05T21:31:39.964Z,2.45
2022-10-05T21:34:06.414Z,1.43
2022-10-05T21:36:33.074Z,2.47
2022-10-05T21:38:59.683Z,2.78
2022-10-05T21:41:26.589Z,2.30
2022-10-05T21:43:52.981Z,2.53
2022-10-05T21:46:22.831Z,2.80
2022-10-05T21:48:49.801Z,3.20
2022-10-05T21:51:18.785Z,3.72
2022-10-05T21:54:01.863Z,2.30
2022-10-05T21:56:34.736Z,2.72
2022-10-05T21:59:04.914Z,2.93
2022-10-05T22:01:31.383Z,3.60
2022-10-05T22:03:57.854Z,3.70
2022-10-05T22:06:24.599Z,3.17
2022-10-05T22:08:50.938Z,5.70
2022-10-05T22:11:18.064Z,6.10
2022-10-05T22:13:47.386Z,5.70
2022-10-05T22:16:16.035Z,4.60
